Terminal Aerodrome Forecast
Issued by NWS

Home | Current Version | Previous Version | Text Only | Print | Product List | Glossary On
Versions: 1 2 3 4 5 6 7 8 9 10 11 12 13 14 15
000
FTUS45 KSLC 060029 AAA
TAFSGU
TAF AMD
KSGU 060029Z 0600/0624 26015G25KT P6SM FEW250
     FM060200 26011KT P6SM FEW200
     FM060400 VRB06KT P6SM SCT200
     FM061700 20013G23KT P6SM SCT080 BKN200
      AMD LTD TO CLD VIS AND WIND=

USA.gov is the U.S. government's official web portal to all federal, state and local government web resources and services.